Time;durP1;ratioP1;P1;durP2;ratioP2;P2;SDS_P1;SDS_P2;PMS_P1;PMS_P2;Temp;Humidity;BMP_temperature;BMP_pressure;BME280_temperature;BME280_humidity;BME280_pressure;Samples;Min_cycle;Max_cycle;Signal;HPM_P1;HPM_P2
2023/10/20 00:00:14;;;;;;;4.88;1.73;;;13.90;99.90;;;;;;5056178;28;20481;-54
2023/10/20 00:02:43;;;;;;;5.70;2.20;;;13.90;99.90;;;;;;5056094;28;20123;-53
2023/10/20 00:05:09;;;;;;;5.38;2.10;;;13.90;99.90;;;;;;5056299;28;20028;-54
2023/10/20 00:07:36;;;;;;;6.50;2.20;;;13.90;99.90;;;;;;5055639;28;20359;-54
2023/10/20 00:10:03;;;;;;;8.38;2.08;;;14.00;99.90;;;;;;5056340;28;20063;-54
2023/10/20 00:12:29;;;;;;;5.97;2.10;;;14.00;99.90;;;;;;5056107;28;20127;-53
2023/10/20 00:14:55;;;;;;;5.35;2.30;;;14.00;99.90;;;;;;5054987;28;20024;-54
2023/10/20 00:17:21;;;;;;;8.27;2.65;;;14.00;99.90;;;;;;5056056;28;20029;-55
2023/10/20 00:19:47;;;;;;;6.45;2.42;;;14.00;99.90;;;;;;5056055;28;20036;-53
2023/10/20 00:22:13;;;;;;;5.43;2.17;;;14.00;99.90;;;;;;5056005;28;20037;-54
2023/10/20 00:24:40;;;;;;;6.72;2.30;;;14.00;99.90;;;;;;5055957;28;20409;-54
2023/10/20 00:27:05;;;;;;;7.90;2.00;;;14.00;99.90;;;;;;5055936;28;20025;-52
2023/10/20 00:29:31;;;;;;;6.30;2.00;;;14.00;99.90;;;;;;5055709;28;20029;-54
2023/10/20 00:31:56;;;;;;;5.32;1.88;;;14.00;99.90;;;;;;5055765;28;20067;-51
2023/10/20 00:34:22;;;;;;;4.93;2.00;;;14.00;99.90;;;;;;5055355;28;20072;-54
2023/10/20 00:36:48;;;;;;;5.65;2.40;;;14.10;99.90;;;;;;5055640;28;20044;-55
2023/10/20 00:39:13;;;;;;;5.85;2.20;;;14.10;99.90;;;;;;5055768;28;20044;-54
2023/10/20 00:41:39;;;;;;;6.70;2.00;;;14.10;99.90;;;;;;5055629;28;20397;-55
2023/10/20 00:44:05;;;;;;;8.55;3.55;;;14.00;99.90;;;;;;5055532;28;20021;-54
2023/10/20 00:46:31;;;;;;;6.55;2.03;;;14.00;99.90;;;;;;5055253;28;20033;-54
2023/10/20 00:48:57;;;;;;;5.75;2.20;;;14.00;99.90;;;;;;5055247;28;20096;-54
2023/10/20 00:51:24;;;;;;;4.57;1.80;;;14.00;99.90;;;;;;5055369;28;20021;-54
2023/10/20 00:53:50;;;;;;;6.47;1.83;;;14.00;99.90;;;;;;5037628;28;20059;-54
2023/10/20 00:56:15;;;;;;;6.68;2.13;;;14.00;99.90;;;;;;5054162;28;20033;-54
2023/10/20 00:58:41;;;;;;;5.78;1.80;;;14.00;99.90;;;;;;5054181;28;20378;-53
2023/10/20 01:01:07;;;;;;;6.22;1.98;;;14.10;99.90;;;;;;5055162;28;20037;-54
2023/10/20 01:03:34;;;;;;;9.45;1.63;;;14.10;99.90;;;;;;5055173;28;20036;-54
2023/10/20 01:06:00;;;;;;;5.38;1.83;;;14.10;99.90;;;;;;5053863;28;20466;-54
2023/10/20 01:08:26;;;;;;;5.57;2.05;;;14.10;99.90;;;;;;5054130;28;20424;-54
2023/10/20 01:10:55;;;;;;;5.63;1.60;;;14.10;99.90;;;;;;5053988;28;20064;-55
2023/10/20 01:13:23;;;;;;;7.25;2.40;;;14.10;99.90;;;;;;5054911;28;20029;-49
2023/10/20 01:15:49;;;;;;;6.15;2.00;;;14.10;99.90;;;;;;5055164;28;20430;-51
2023/10/20 01:18:15;;;;;;;4.22;1.60;;;14.10;99.90;;;;;;5053879;28;20120;-50
2023/10/20 01:20:41;;;;;;;4.30;2.17;;;14.10;99.90;;;;;;5054993;28;20029;-50
2023/10/20 01:23:06;;;;;;;6.15;2.17;;;14.00;99.90;;;;;;5054814;28;20040;-51
2023/10/20 01:25:32;;;;;;;3.50;1.75;;;14.00;99.90;;;;;;5054343;28;20111;-51
2023/10/20 01:27:58;;;;;;;6.85;1.80;;;14.00;99.90;;;;;;5054751;28;20028;-49
2023/10/20 01:30:25;;;;;;;5.15;1.85;;;14.00;99.90;;;;;;5054789;28;20154;-51
2023/10/20 01:32:50;;;;;;;5.45;1.95;;;14.00;99.90;;;;;;5054563;28;20163;-51
2023/10/20 01:35:16;;;;;;;5.15;2.08;;;14.00;99.90;;;;;;5054638;28;20438;-51
2023/10/20 01:37:42;;;;;;;7.75;2.05;;;14.00;99.90;;;;;;5055036;28;20033;-51
2023/10/20 01:40:09;;;;;;;6.22;1.92;;;14.00;99.90;;;;;;5053488;28;20040;-52
2023/10/20 01:42:35;;;;;;;8.73;2.42;;;14.00;99.90;;;;;;5054637;28;20021;-51
2023/10/20 01:45:01;;;;;;;5.85;2.08;;;13.90;99.90;;;;;;5053486;28;20028;-51
2023/10/20 01:47:27;;;;;;;5.95;1.98;;;13.90;99.90;;;;;;5054614;28;20396;-51
2023/10/20 01:49:53;;;;;;;6.38;1.80;;;13.90;99.90;;;;;;5053470;28;20028;-51
2023/10/20 01:52:18;;;;;;;6.82;2.13;;;13.80;99.90;;;;;;5054492;28;20033;-49
2023/10/20 01:54:46;;;;;;;6.00;1.77;;;13.80;99.90;;;;;;5053221;28;20091;-50
2023/10/20 01:57:11;;;;;;;6.15;1.70;;;13.90;99.90;;;;;;5054539;28;20068;-52
2023/10/20 01:59:37;;;;;;;7.45;1.80;;;13.80;99.90;;;;;;5054541;28;20441;-51
2023/10/20 02:02:03;;;;;;;7.00;1.95;;;13.90;99.90;;;;;;5054423;28;20509;-51
2023/10/20 02:04:30;;;;;;;7.32;1.85;;;13.90;99.90;;;;;;5054147;28;20438;-51
2023/10/20 02:06:56;;;;;;;5.35;1.50;;;13.90;99.90;;;;;;5054127;28;20465;-51
2023/10/20 02:09:25;;;;;;;8.48;1.73;;;13.90;99.90;;;;;;5053468;28;20033;-50
2023/10/20 02:11:51;;;;;;;5.60;1.50;;;13.90;99.90;;;;;;5053889;28;20041;-52
2023/10/20 02:14:17;;;;;;;3.22;1.30;;;14.00;99.90;;;;;;5058048;28;20040;-51
2023/10/20 02:16:43;;;;;;;5.10;1.50;;;14.00;99.90;;;;;;5058520;28;20043;-51
2023/10/20 02:19:10;;;;;;;4.10;1.60;;;14.00;99.90;;;;;;5058091;28;20064;-51
2023/10/20 02:21:37;;;;;;;4.32;1.40;;;14.10;99.90;;;;;;5058344;28;20021;-51
2023/10/20 02:24:04;;;;;;;6.47;1.50;;;14.10;99.90;;;;;;5058136;28;20037;-51
2023/10/20 02:26:29;;;;;;;4.93;1.50;;;14.10;99.90;;;;;;5057874;28;20358;-51
2023/10/20 02:28:55;;;;;;;6.53;1.60;;;14.10;99.90;;;;;;5057950;28;20021;-50
2023/10/20 02:31:21;;;;;;;8.45;1.50;;;14.10;99.90;;;;;;5058066;28;20040;-51
2023/10/20 02:33:47;;;;;;;5.63;1.77;;;14.10;99.90;;;;;;5056851;28;20399;-51
2023/10/20 02:36:17;;;;;;;5.75;1.50;;;14.10;99.90;;;;;;5056832;28;20040;-51
2023/10/20 02:38:42;;;;;;;;;;;14.10;99.90;;;;;;5058055;28;20033;-52
2023/10/20 02:41:08;;;;;;;9.82;2.13;;;14.10;99.90;;;;;;5057627;28;19974;-52
2023/10/20 02:43:34;;;;;;;5.75;1.75;;;14.10;99.90;;;;;;5057562;28;20040;-52
2023/10/20 02:46:00;;;;;;;10.18;2.30;;;14.10;99.90;;;;;;5057804;28;20119;-50
2023/10/20 02:48:27;;;;;;;5.95;1.50;;;14.10;99.90;;;;;;5057560;28;20025;-51
2023/10/20 02:50:52;;;;;;;5.20;1.50;;;14.10;99.90;;;;;;5057551;28;20029;-49
2023/10/20 02:53:18;;;;;;;6.45;1.73;;;14.10;99.90;;;;;;5057865;28;20093;-48
2023/10/20 02:55:44;;;;;;;2.45;1.30;;;14.10;99.90;;;;;;5057756;28;20040;-47
2023/10/20 02:58:10;;;;;;;2.85;1.15;;;14.10;99.90;;;;;;5057654;28;20466;-51
2023/10/20 03:00:40;;;;;;;4.07;1.20;;;14.10;99.90;;;;;;5056337;28;20477;-51
2023/10/20 03:03:07;;;;;;;5.93;1.52;;;14.10;99.90;;;;;;5057506;28;20024;-51
2023/10/20 03:05:32;;;;;;;3.70;1.23;;;14.10;99.90;;;;;;5057199;28;20055;-52
2023/10/20 03:07:58;;;;;;;3.60;1.27;;;14.10;99.90;;;;;;5057418;28;20033;-51
2023/10/20 03:10:25;;;;;;;5.18;1.30;;;14.10;99.90;;;;;;5057253;28;20029;-51
2023/10/20 03:12:51;;;;;;;2.95;1.20;;;14.10;99.90;;;;;;5057486;28;20431;-50
2023/10/20 03:15:16;;;;;;;5.43;1.35;;;14.10;99.90;;;;;;5057167;28;20040;-51
2023/10/20 03:17:42;;;;;;;5.55;1.30;;;14.10;99.90;;;;;;5057275;28;20029;-51
2023/10/20 03:20:08;;;;;;;6.75;1.30;;;14.10;99.90;;;;;;5057181;28;20047;-51
2023/10/20 03:22:35;;;;;;;4.93;1.30;;;14.10;99.90;;;;;;5057011;28;20029;-52
2023/10/20 03:25:04;;;;;;;4.82;1.10;;;14.10;99.90;;;;;;5055815;28;20452;-52
2023/10/20 03:27:30;;;;;;;4.70;1.38;;;14.10;99.90;;;;;;5057117;28;20041;-51
2023/10/20 03:29:56;;;;;;;4.22;1.20;;;14.10;99.90;;;;;;5057736;28;20445;-50
2023/10/20 03:32:22;;;;;;;2.55;1.00;;;14.10;99.90;;;;;;5055627;28;20044;-51
2023/10/20 03:34:47;;;;;;;3.58;1.15;;;14.10;99.90;;;;;;5057135;28;20032;-52
2023/10/20 03:37:13;;;;;;;6.60;1.55;;;14.10;99.90;;;;;;5056826;28;20511;-52
2023/10/20 03:39:39;;;;;;;2.22;1.20;;;14.10;99.90;;;;;;5056844;28;20047;-52
2023/10/20 03:42:07;;;;;;;3.30;1.30;;;14.10;99.90;;;;;;5056888;28;20037;-50
2023/10/20 03:44:35;;;;;;;3.28;1.55;;;14.10;99.90;;;;;;5056648;28;20409;-52
2023/10/20 03:47:01;;;;;;;7.00;1.50;;;14.10;99.90;;;;;;5056579;28;20024;-51
2023/10/20 03:49:31;;;;;;;5.97;1.67;;;14.10;99.90;;;;;;5055583;28;20037;-51
2023/10/20 03:51:56;;;;;;;;;;;14.10;99.90;;;;;;5057054;28;20461;-51
2023/10/20 03:54:24;;;;;;;6.95;1.50;;;14.10;99.90;;;;;;5056466;28;19923;-52
2023/10/20 03:56:50;;;;;;;6.13;1.70;;;14.10;99.90;;;;;;5056528;28;20021;-51
2023/10/20 03:59:16;;;;;;;4.72;1.48;;;14.10;99.90;;;;;;5056296;28;20139;-52
2023/10/20 04:01:42;;;;;;;4.95;1.50;;;14.10;99.90;;;;;;5056080;28;20025;-52
2023/10/20 04:04:09;;;;;;;5.63;1.70;;;14.10;99.90;;;;;;5056449;28;20033;-51
2023/10/20 04:06:36;;;;;;;5.20;1.70;;;14.10;99.90;;;;;;5056096;28;20049;-49
2023/10/20 04:09:07;;;;;;;6.50;1.98;;;14.10;99.90;;;;;;5056253;28;20025;-48
2023/10/20 04:11:34;;;;;;;6.70;1.80;;;14.10;99.90;;;;;;5056251;28;20032;-49
2023/10/20 04:14:01;;;;;;;4.70;2.03;;;14.10;99.90;;;;;;5056004;28;20064;-47
2023/10/20 04:16:27;;;;;;;4.45;2.00;;;14.00;99.90;;;;;;5056198;28;20118;-51
2023/10/20 04:18:53;;;;;;;5.40;2.47;;;14.10;99.90;;;;;;5056128;28;20028;-51
2023/10/20 04:21:18;;;;;;;6.43;3.08;;;14.00;99.90;;;;;;5055859;28;20227;-51
2023/10/20 04:23:44;;;;;;;5.70;2.00;;;14.10;99.90;;;;;;5055965;28;20086;-51
2023/10/20 04:26:19;;;;;;;8.48;2.65;;;14.10;99.90;;;;;;5055983;28;20024;-51
2023/10/20 04:28:44;;;;;;;4.65;2.00;;;14.10;99.90;;;;;;5055851;28;20041;-52
2023/10/20 05:00:46;;;;;;;4.60;2.03;;;14.10;99.90;;;;;;5061562;28;20056;-51
2023/10/20 05:03:16;;;;;;;6.18;2.88;;;14.10;99.90;;;;;;5055055;28;20036;-52
2023/10/20 05:05:53;;;;;;;;;;;14.10;99.90;;;;;;5054321;28;20048;-49
2023/10/20 05:08:21;;;;;;;4.72;2.50;;;14.10;99.90;;;;;;5055076;28;20294;-51
2023/10/20 05:10:47;;;;;;;4.95;2.92;;;14.20;99.90;;;;;;5055277;28;20017;-51
2023/10/20 05:13:13;;;;;;;4.78;2.63;;;14.10;99.90;;;;;;5055199;28;20063;-52
2023/10/20 05:15:40;;;;;;;7.13;3.13;;;14.10;99.90;;;;;;5055133;28;20028;-51
2023/10/20 05:18:06;;;;;;;6.15;3.63;;;14.10;99.90;;;;;;5054906;28;20090;-51
2023/10/20 05:20:34;;;;;;;6.43;3.30;;;14.10;99.90;;;;;;5054771;28;20497;-51
2023/10/20 05:23:00;;;;;;;7.50;3.67;;;14.10;99.90;;;;;;5054837;28;20021;-51
2023/10/20 05:25:26;;;;;;;7.07;3.40;;;14.10;99.90;;;;;;5053802;28;20025;-51
2023/10/20 05:27:51;;;;;;;8.13;3.63;;;14.10;99.90;;;;;;5054873;28;20370;-51
2023/10/20 05:30:17;;;;;;;6.45;3.20;;;14.10;99.90;;;;;;5054531;28;20067;-52
2023/10/20 05:32:43;;;;;;;6.30;3.10;;;14.10;99.90;;;;;;5054607;28;20041;-52
2023/10/20 05:35:09;;;;;;;5.85;3.13;;;14.10;99.90;;;;;;5054703;28;20091;-51
2023/10/20 05:37:35;;;;;;;6.65;3.17;;;14.10;99.90;;;;;;5053599;28;20120;-50
2023/10/20 05:40:01;;;;;;;4.35;3.00;;;14.00;99.90;;;;;;5054646;28;20057;-51
2023/10/20 05:42:26;;;;;;;5.22;2.88;;;14.00;99.90;;;;;;5053268;28;20360;-50
2023/10/20 05:45:10;;;;;;;7.55;2.90;;;14.10;99.90;;;;;;5054636;28;20021;-51
2023/10/20 05:47:37;;;;;;;4.15;2.38;;;14.10;99.90;;;;;;5052659;28;20363;-51
2023/10/20 05:50:03;;;;;;;4.15;2.50;;;14.00;99.90;;;;;;5054646;28;20108;-51
2023/10/20 05:52:28;;;;;;;4.95;2.22;;;14.00;99.90;;;;;;5054225;28;20040;-51
2023/10/20 05:54:56;;;;;;;4.68;1.90;;;14.00;99.90;;;;;;5053527;28;20020;-50
2023/10/20 05:57:24;;;;;;;4.35;1.88;;;14.00;99.90;;;;;;5054547;28;20040;-51
2023/10/20 05:59:50;;;;;;;4.70;1.80;;;14.00;99.90;;;;;;5054566;28;20343;-51
2023/10/20 06:02:16;;;;;;;3.03;1.65;;;14.00;99.90;;;;;;5054562;28;20037;-51
2023/10/20 06:04:42;;;;;;;4.50;1.65;;;13.90;99.90;;;;;;5054388;28;20029;-51
2023/10/20 06:07:07;;;;;;;4.85;1.70;;;14.00;99.90;;;;;;5054134;28;20049;-52
2023/10/20 06:09:33;;;;;;;6.78;1.65;;;13.90;99.90;;;;;;5054546;28;20112;-50
2023/10/20 06:11:59;;;;;;;3.10;1.40;;;13.90;99.90;;;;;;5054415;28;20116;-51
2023/10/20 06:14:25;;;;;;;3.03;1.50;;;13.90;99.90;;;;;;5054566;28;20618;-48
2023/10/20 06:16:51;;;;;;;5.18;1.85;;;13.90;99.90;;;;;;5054347;28;20053;-51
2023/10/20 06:19:17;;;;;;;2.42;1.60;;;13.90;99.90;;;;;;5053124;28;20037;-49
2023/10/20 06:21:43;;;;;;;2.25;1.45;;;13.90;99.90;;;;;;5054302;28;20025;-47
2023/10/20 06:24:11;;;;;;;5.55;1.85;;;13.90;99.90;;;;;;5053587;28;20032;-49
2023/10/20 06:26:38;;;;;;;3.80;1.60;;;13.90;99.90;;;;;;5053974;28;20033;-47
2023/10/20 06:29:20;;;;;;;3.67;1.83;;;13.90;99.90;;;;;;5052901;28;20036;-49
2023/10/20 06:31:55;;;;;;;5.00;4.00;;;13.90;99.90;;;;;;5054233;28;20040;-48
2023/10/20 06:34:24;;;;;;;9.65;2.55;;;13.90;99.90;;;;;;5053897;28;20063;-50
2023/10/20 06:37:08;;;;;;;4.85;2.47;;;13.90;99.90;;;;;;5054285;28;20107;-49
2023/10/20 06:39:35;;;;;;;5.10;1.98;;;13.90;99.90;;;;;;5054194;28;20477;-51
2023/10/20 06:42:01;;;;;;;3.88;1.50;;;13.90;99.90;;;;;;5054079;28;20021;-50
2023/10/20 06:44:26;;;;;;;3.10;1.80;;;13.90;99.90;;;;;;5053858;28;20448;-51
2023/10/20 06:46:52;;;;;;;7.85;3.40;;;14.00;99.90;;;;;;5053488;28;20024;-50
2023/10/20 06:49:18;;;;;;;4.45;1.98;;;14.00;99.90;;;;;;5053834;28;20029;-51
2023/10/20 06:51:46;;;;;;;4.30;3.42;;;13.90;99.90;;;;;;5053964;28;20094;-48
2023/10/20 06:54:12;;;;;;;14.82;4.75;;;14.00;99.90;;;;;;5053835;28;20166;-51
2023/10/20 06:56:38;;;;;;;15.18;4.90;;;14.00;99.90;;;;;;5053805;28;20036;-48
2023/10/20 06:59:03;;;;;;;11.38;4.43;;;13.90;99.90;;;;;;5055661;28;20033;-50
2023/10/20 07:01:32;;;;;;;7.15;3.42;;;14.00;99.90;;;;;;5057074;28;20108;-51
2023/10/20 07:03:58;;;;;;;7.65;4.05;;;13.90;99.90;;;;;;5057339;28;20389;-51
2023/10/20 07:06:24;;;;;;;6.63;3.40;;;13.90;99.90;;;;;;5055916;28;20063;-51
2023/10/20 07:08:50;;;;;;;6.22;3.30;;;14.00;99.90;;;;;;5056735;28;20029;-51
2023/10/20 07:11:16;;;;;;;8.95;3.72;;;14.00;99.90;;;;;;5055965;28;20048;-51
2023/10/20 07:13:44;;;;;;;5.30;2.97;;;14.00;99.90;;;;;;5057049;28;20025;-51
2023/10/20 07:16:11;;;;;;;8.82;3.95;;;14.00;99.90;;;;;;5057238;28;20040;-51
2023/10/20 07:18:38;;;;;;;6.35;3.05;;;14.00;99.90;;;;;;5056088;28;20114;-48
2023/10/20 07:21:04;;;;;;;7.15;3.38;;;14.00;99.90;;;;;;5056618;28;20040;-51
2023/10/20 07:23:29;;;;;;;10.23;4.40;;;14.00;99.90;;;;;;5056461;28;20029;-50
2023/10/20 07:25:55;;;;;;;8.57;4.07;;;14.00;99.90;;;;;;5056657;28;20021;-50
2023/10/20 07:28:21;;;;;;;6.35;3.50;;;14.00;99.90;;;;;;5056591;28;20449;-48
2023/10/20 07:30:47;;;;;;;7.78;3.65;;;14.00;99.90;;;;;;5056519;28;20227;-52
2023/10/20 07:33:13;;;;;;;7.40;4.13;;;14.00;99.90;;;;;;5055561;28;20547;-50
2023/10/20 07:35:39;;;;;;;10.20;4.75;;;14.00;99.90;;;;;;5056739;28;20029;-52
2023/10/20 07:38:04;;;;;;;9.45;5.03;;;14.00;99.90;;;;;;5056569;28;20426;-48
2023/10/20 07:40:34;;;;;;;12.40;5.60;;;14.10;99.90;;;;;;5056157;28;20032;-50
2023/10/20 07:43:00;;;;;;;;;;;14.10;99.90;;;;;;5056790;28;20443;-50
2023/10/20 07:45:28;;;;;;;12.95;6.43;;;14.10;99.90;;;;;;5056411;28;19940;-51
2023/10/20 07:47:53;;;;;;;11.35;5.63;;;14.20;99.90;;;;;;5056384;28;20036;-50
2023/10/20 07:50:19;;;;;;;12.65;5.15;;;14.10;99.90;;;;;;5056083;28;20098;-49
2023/10/20 07:52:45;;;;;;;8.48;4.70;;;14.10;99.90;;;;;;5056361;28;20170;-48
2023/10/20 07:55:10;;;;;;;8.73;4.55;;;14.20;99.90;;;;;;5055782;28;20459;-49
2023/10/20 07:57:36;;;;;;;5.70;3.42;;;14.20;99.90;;;;;;5056136;28;20033;-49
2023/10/20 08:00:03;;;;;;;6.97;2.17;;;14.20;99.90;;;;;;5055943;28;20029;-49
2023/10/20 08:02:29;;;;;;;5.90;1.80;;;14.10;99.90;;;;;;5055951;28;20033;-47
2023/10/20 08:04:55;;;;;;;5.88;1.70;;;14.10;99.90;;;;;;5056243;28;20100;-48
2023/10/20 08:07:20;;;;;;;6.80;1.80;;;14.00;99.90;;;;;;5055733;28;20472;-49
2023/10/20 08:09:46;;;;;;;5.38;1.45;;;14.00;99.90;;;;;;5055336;28;20486;-51
2023/10/20 08:12:12;;;;;;;5.45;1.40;;;14.00;99.90;;;;;;5054444;28;20070;-50
2023/10/20 08:14:38;;;;;;;5.72;1.58;;;13.90;99.90;;;;;;5054720;28;20112;-47
2023/10/20 08:17:05;;;;;;;5.85;1.75;;;13.90;99.90;;;;;;5055995;28;20047;-49
2023/10/20 08:19:30;;;;;;;4.78;1.50;;;13.90;99.90;;;;;;5055727;28;20450;-51
2023/10/20 08:21:56;;;;;;;8.30;2.90;;;13.90;99.90;;;;;;5056209;28;20056;-49
2023/10/20 08:24:22;;;;;;;12.95;3.10;;;13.90;99.90;;;;;;5054700;28;20358;-51
2023/10/20 08:26:48;;;;;;;6.22;2.15;;;13.90;99.90;;;;;;5055310;28;20378;-49
2023/10/20 08:29:16;;;;;;;7.22;2.20;;;13.90;99.90;;;;;;5055807;28;20438;-53
2023/10/20 08:31:41;;;;;;;9.88;1.77;;;13.90;99.90;;;;;;5055650;28;20373;-49
2023/10/20 08:34:07;;;;;;;7.35;1.98;;;14.00;99.90;;;;;;5054596;28;20039;-47
2023/10/20 08:36:33;;;;;;;11.93;2.05;;;14.00;99.90;;;;;;5055331;28;20103;-50
2023/10/20 08:39:05;;;;;;;8.35;2.00;;;13.90;99.90;;;;;;5054107;28;20075;-52
2023/10/20 08:41:30;;;;;;;10.30;2.20;;;13.80;99.90;;;;;;5055318;28;20090;-52
2023/10/20 08:43:56;;;;;;;10.30;2.78;;;13.80;99.90;;;;;;5054795;28;20358;-49
2023/10/20 08:46:25;;;;;;;8.98;2.33;;;13.80;99.90;;;;;;5053907;28;20040;-50
2023/10/20 08:48:50;;;;;;;6.82;2.03;;;13.70;99.90;;;;;;5055386;28;20366;-50
2023/10/20 08:51:17;;;;;;;10.02;2.35;;;13.70;99.90;;;;;;5055154;28;20044;-50
2023/10/20 08:53:43;;;;;;;10.20;2.85;;;13.60;99.90;;;;;;5055394;28;20025;-50
2023/10/20 08:56:10;;;;;;;13.38;2.80;;;13.60;99.90;;;;;;5055084;28;20055;-48
2023/10/20 08:58:36;;;;;;;22.05;4.68;;;13.50;99.90;;;;;;5055115;28;20347;-50
2023/10/20 09:01:02;;;;;;;12.75;2.63;;;13.60;99.90;;;;;;5054992;28;20063;-48
2023/10/20 09:03:28;;;;;;;12.77;2.63;;;13.60;99.90;;;;;;5055385;28;20043;-50
2023/10/20 09:06:02;;;;;;;11.40;2.30;;;13.50;99.90;;;;;;5053591;28;20055;-48
2023/10/20 09:08:28;;;;;;;8.32;2.97;;;13.50;99.90;;;;;;5054421;28;20442;-49
2023/10/20 09:10:54;;;;;;;9.77;2.45;;;13.50;99.90;;;;;;5054688;28;20108;-49
2023/10/20 09:13:20;;;;;;;11.57;2.33;;;13.40;99.90;;;;;;5054540;28;20056;-50
2023/10/20 09:15:45;;;;;;;11.18;2.20;;;13.40;99.90;;;;;;5054628;28;20032;-48
2023/10/20 09:18:11;;;;;;;13.75;2.35;;;13.40;99.90;;;;;;5054909;28;20033;-50
2023/10/20 09:20:37;;;;;;;12.40;2.30;;;13.30;99.90;;;;;;5054701;28;20127;-48
2023/10/20 09:23:10;;;;;;;8.85;1.75;;;13.30;99.90;;;;;;5053614;28;20146;-51
2023/10/20 09:25:36;;;;;;;6.13;1.80;;;13.30;99.90;;;;;;5054791;28;20054;-49
2023/10/20 09:28:01;;;;;;;9.93;2.10;;;13.20;99.90;;;;;;5053616;28;20044;-50
2023/10/20 09:30:28;;;;;;;12.32;2.47;;;13.20;99.90;;;;;;5054328;28;20032;-51
2023/10/20 09:32:53;;;;;;;7.93;1.70;;;13.20;99.90;;;;;;5054773;28;20079;-51
2023/10/20 09:35:19;;;;;;;9.35;2.00;;;13.10;99.90;;;;;;5054775;28;20041;-52
2023/10/20 09:37:46;;;;;;;13.20;2.45;;;13.20;99.90;;;;;;5054855;28;20055;-51
2023/10/20 09:40:11;;;;;;;11.63;2.33;;;13.10;99.90;;;;;;5054817;28;20032;-51
2023/10/20 09:43:07;;;;;;;14.38;2.92;;;13.10;99.90;;;;;;5036646;28;20079;-51
2023/10/20 09:45:33;;;;;;;13.15;2.33;;;13.10;99.90;;;;;;5053358;28;20040;-52
2023/10/20 09:48:01;;;;;;;13.15;3.83;;;13.10;99.90;;;;;;5053254;28;20450;-51
2023/10/20 09:50:26;;;;;;;10.10;1.85;;;13.10;99.90;;;;;;5036517;28;20056;-51
2023/10/20 09:52:52;;;;;;;15.93;3.13;;;13.00;99.90;;;;;;5054201;28;20029;-51
2023/10/20 09:55:19;;;;;;;16.05;2.60;;;13.00;99.90;;;;;;5053249;28;20056;-52
2023/10/20 09:57:47;;;;;;;8.60;2.28;;;13.00;99.90;;;;;;5036843;28;20076;-51
2023/10/20 10:00:12;;;;;;;11.35;2.10;;;13.00;99.90;;;;;;5053200;28;20065;-50
2023/10/20 10:02:38;;;;;;;18.27;3.92;;;13.00;99.90;;;;;;5054007;28;20118;-49
2023/10/20 10:05:09;;;;;;;10.63;1.90;;;13.00;99.90;;;;;;5054090;28;20033;-51
2023/10/20 10:07:35;;;;;;;13.15;2.45;;;13.00;99.90;;;;;;5053041;28;20072;-51
2023/10/20 10:10:01;;;;;;;13.48;3.45;;;12.90;99.90;;;;;;5054286;28;20442;-51
2023/10/20 10:12:28;;;;;;;13.48;3.20;;;12.90;99.90;;;;;;5054002;28;20033;-50
2023/10/20 10:15:01;;;;;;;11.25;2.15;;;12.90;99.90;;;;;;5054261;28;20029;-50
2023/10/20 10:17:27;;;;;;;14.07;3.20;;;12.80;99.90;;;;;;5053679;28;20037;-51
2023/10/20 10:19:53;;;;;;;13.32;2.42;;;12.80;99.90;;;;;;5053220;28;20041;-49
2023/10/20 10:22:26;;;;;;;13.18;2.08;;;12.80;99.90;;;;;;5054232;28;20033;-51
2023/10/20 10:24:56;;;;;;;9.13;2.03;;;12.80;99.90;;;;;;5052900;28;20029;-51
2023/10/20 10:27:28;;;;;;;5.43;1.30;;;12.80;99.90;;;;;;5054142;28;20029;-47
2023/10/20 10:30:00;;;;;;;8.18;1.80;;;12.90;99.90;;;;;;5052950;28;20047;-51
2023/10/20 10:32:36;;;;;;;13.18;3.03;;;12.80;99.90;;;;;;5054069;28;20032;-50
2023/10/20 10:35:03;;;;;;;8.00;1.60;;;12.80;99.90;;;;;;5057487;28;20024;-51
2023/10/20 10:37:33;;;;;;;10.80;1.70;;;12.80;99.90;;;;;;5056716;28;20044;-48
2023/10/20 10:40:11;;;;;;;10.30;2.13;;;12.80;99.90;;;;;;5057965;28;20346;-50
2023/10/20 10:42:38;;;;;;;14.10;3.65;;;12.80;99.90;;;;;;5057879;28;20395;-50
2023/10/20 10:45:16;;;;;;;9.90;1.60;;;12.80;99.90;;;;;;5057254;28;20025;-51
2023/10/20 10:47:42;;;;;;;10.85;2.13;;;12.80;99.90;;;;;;5057533;28;20028;-51
2023/10/20 10:50:08;;;;;;;8.27;1.83;;;12.80;99.90;;;;;;5057618;28;20025;-47
2023/10/20 10:52:34;;;;;;;11.27;2.20;;;12.80;99.90;;;;;;5057676;28;20048;-51
2023/10/20 10:55:00;;;;;;;9.13;2.83;;;12.80;99.90;;;;;;5057053;28;20376;-50
2023/10/20 10:57:25;;;;;;;12.45;2.58;;;12.80;99.90;;;;;;5057387;28;20402;-51
2023/10/20 10:59:51;;;;;;;18.77;2.50;;;12.80;99.90;;;;;;5056111;28;20363;-49
2023/10/20 11:02:17;;;;;;;13.77;3.03;;;12.80;99.90;;;;;;5056300;28;20044;-51
2023/10/20 11:04:42;;;;;;;13.70;1.60;;;12.80;99.90;;;;;;5056802;28;20036;-52
2023/10/20 11:07:08;;;;;;;16.38;2.58;;;12.80;99.90;;;;;;5056713;28;20343;-51
2023/10/20 11:09:34;;;;;;;8.80;1.80;;;12.70;99.90;;;;;;5055927;28;20017;-51
2023/10/20 11:11:59;;;;;;;9.63;1.85;;;12.70;99.90;;;;;;5055739;28;20055;-51
2023/10/20 11:14:25;;;;;;;14.35;2.17;;;12.70;99.90;;;;;;5056859;28;20060;-51
2023/10/20 11:16:51;;;;;;;14.98;2.30;;;12.70;99.90;;;;;;5056828;28;20059;-50
2023/10/20 11:19:17;;;;;;;9.60;2.63;;;12.70;99.90;;;;;;5055188;28;20484;-48
2023/10/20 11:21:48;;;;;;;16.90;2.75;;;12.70;99.90;;;;;;5055512;28;20025;-48
2023/10/20 11:24:29;;;;;;;14.55;2.10;;;12.70;99.90;;;;;;5056349;28;20091;-48
2023/10/20 11:27:02;;;;;;;14.95;2.00;;;12.60;99.90;;;;;;5057024;28;20338;-51
2023/10/20 11:29:32;;;;;;;13.57;2.53;;;12.60;99.90;;;;;;5039304;28;20040;-51
2023/10/20 11:31:59;;;;;;;11.77;2.00;;;12.60;99.90;;;;;;5056608;28;20059;-50
2023/10/20 11:34:25;;;;;;;11.07;2.20;;;12.60;99.90;;;;;;5055478;28;20029;-51
2023/10/20 11:36:51;;;;;;;11.50;2.47;;;12.60;99.90;;;;;;5056558;28;20126;-49
2023/10/20 11:39:17;;;;;;;10.88;2.08;;;12.60;99.90;;;;;;5055112;28;20100;-51
2023/10/20 11:41:43;;;;;;;13.60;2.72;;;12.60;99.90;;;;;;5056473;28;20161;-49
2023/10/20 11:44:08;;;;;;;14.27;2.45;;;12.60;99.90;;;;;;5054848;28;20029;-51
2023/10/20 11:46:34;;;;;;;15.15;3.10;;;12.50;99.90;;;;;;5055418;28;20025;-50
2023/10/20 11:49:00;;;;;;;13.27;3.08;;;12.60;99.90;;;;;;5056086;28;20107;-51
2023/10/20 11:51:25;;;;;;;14.50;2.53;;;12.50;99.90;;;;;;5055803;28;20037;-51
2023/10/20 11:53:51;;;;;;;15.35;2.38;;;12.50;99.90;;;;;;5056626;28;20036;-51
2023/10/20 11:56:17;;;;;;;9.93;2.08;;;12.50;99.90;;;;;;5055159;28;20036;-51
2023/10/20 11:58:44;;;;;;;13.15;2.38;;;12.50;99.90;;;;;;5056401;28;20044;-51
2023/10/20 12:01:11;;;;;;;16.23;2.25;;;12.40;99.90;;;;;;5056173;28;20467;-51
2023/10/20 12:03:36;;;;;;;17.83;4.05;;;12.50;99.90;;;;;;5056178;28;20032;-52
2023/10/20 12:06:02;;;;;;;16.48;2.92;;;12.50;99.90;;;;;;5055537;28;20041;-53
2023/10/20 12:08:29;;;;;;;15.32;2.60;;;12.50;99.90;;;;;;5055970;28;20028;-51
2023/10/20 12:10:55;;;;;;;13.18;2.53;;;12.50;99.90;;;;;;5055976;28;20514;-51
2023/10/20 12:13:20;;;;;;;17.75;2.70;;;12.40;99.90;;;;;;5054860;28;20064;-52
2023/10/20 12:15:46;;;;;;;18.38;8.63;;;12.40;99.90;;;;;;5056063;28;20103;-51
2023/10/20 12:18:12;;;;;;;12.18;2.67;;;12.40;99.90;;;;;;5055792;28;20075;-51
2023/10/20 12:20:38;;;;;;;18.58;2.70;;;12.40;99.90;;;;;;5055650;28;20025;-51
2023/10/20 12:23:05;;;;;;;11.70;2.95;;;12.40;99.90;;;;;;5054502;28;20064;-51
2023/10/20 12:25:31;;;;;;;17.70;2.60;;;12.40;99.90;;;;;;5055480;28;20032;-51
2023/10/20 12:27:57;;;;;;;12.05;1.73;;;12.40;99.90;;;;;;5054663;28;20499;-51
2023/10/20 12:30:22;;;;;;;16.00;2.10;;;12.40;99.90;;;;;;5054491;28;20044;-51
2023/10/20 12:32:48;;;;;;;17.17;3.40;;;12.30;99.90;;;;;;5055554;28;20111;-52
2023/10/20 12:35:14;;;;;;;23.40;3.97;;;12.40;99.90;;;;;;5055436;28;20086;-51
2023/10/20 12:37:40;;;;;;;13.48;3.10;;;12.30;99.90;;;;;;5055047;28;20314;-49
2023/10/20 12:40:06;;;;;;;14.45;2.83;;;12.40;99.90;;;;;;5055411;28;20032;-50
2023/10/20 12:42:32;;;;;;;10.88;2.40;;;12.40;99.90;;;;;;5055863;28;20033;-51
2023/10/20 12:45:00;;;;;;;18.52;3.40;;;12.40;99.90;;;;;;5054581;28;20021;-49
2023/10/20 12:47:26;;;;;;;11.43;2.30;;;12.40;99.90;;;;;;5055415;28;20350;-49
2023/10/20 12:49:54;;;;;;;8.77;1.83;;;12.40;99.90;;;;;;5055333;28;20033;-49
2023/10/20 12:52:20;;;;;;;12.82;2.72;;;12.40;99.90;;;;;;5055134;28;20037;-50
2023/10/20 12:54:46;;;;;;;11.13;2.45;;;12.40;99.90;;;;;;5055180;28;20085;-47
2023/10/20 12:57:12;;;;;;;18.98;2.70;;;12.40;99.90;;;;;;5054831;28;20462;-52
2023/10/20 12:59:38;;;;;;;11.65;2.20;;;12.40;99.90;;;;;;5055111;28;20033;-51
2023/10/20 13:02:04;;;;;;;17.75;3.65;;;12.50;99.90;;;;;;5054859;28;20039;-51
2023/10/20 13:04:30;;;;;;;15.45;2.67;;;12.40;99.90;;;;;;5036865;28;20074;-51
2023/10/20 13:06:56;;;;;;;16.95;2.58;;;12.50;99.90;;;;;;5054592;28;20420;-50
2023/10/20 13:09:23;;;;;;;14.52;2.90;;;12.50;99.90;;;;;;5054247;28;20036;-48
2023/10/20 13:11:49;;;;;;;13.07;2.58;;;12.40;99.90;;;;;;5054905;28;20032;-51